Time,TemperatureF,DewpointF,PressureIn,WindDirection,WindDirectionDegrees,WindSpeedMPH,WindSpeedGustMPH,Humidity,HourlyPrecipIn,Conditions,Clouds,dailyrainin,SoftwareType,DateUTC
2013-07-05 00:01:00,72.4,71.4,30.24,SW,224,0.0,0.0,97,0.00,,CLR,0.00,VWS V14.01,2013-07-05 04:01:00,
2013-07-05 00:02:00,72.3,71.3,30.24,SW,224,0.0,0.0,97,0.00,,CLR,0.00,VWS V14.01,2013-07-05 04:02:00,
2013-07-05 00:07:00,72.4,71.5,30.25,SW,224,0.0,0.0,97,0.00,,CLR,0.00,VWS V14.01,2013-07-05 04:07:00,
2013-07-05 00:12:00,72.3,71.4,30.24,SW,224,0.0,0.0,97,0.00,,CLR,0.00,VWS V14.01,2013-07-05 04:12:00,
2013-07-05 00:18:00,72.3,71.5,30.24,SW,224,0.0,0.0,97,0.00,,CLR,0.00,VWS V14.01,2013-07-05 04:18:00,
2013-07-05 00:23:00,72.2,71.4,30.25,SW,224,0.0,0.0,97,0.00,,CLR,0.00,VWS V14.01,2013-07-05 04:23:00,
2013-07-05 00:28:00,72.2,71.5,30.24,SW,224,0.0,0.0,98,0.00,,CLR,0.00,VWS V14.01,2013-07-05 04:28:00,
2013-07-05 00:33:00,72.1,71.4,30.25,SW,224,0.0,0.0,98,0.00,,CLR,0.00,VWS V14.01,2013-07-05 04:33:00,
2013-07-05 00:38:00,72.0,71.3,30.24,SW,224,0.0,0.0,98,0.00,,CLR,0.00,VWS V14.01,2013-07-05 04:38:00,
2013-07-05 00:43:00,72.0,71.4,30.24,SW,224,0.0,0.0,98,0.00,,CLR,0.00,VWS V14.01,2013-07-05 04:43:00,
2013-07-05 00:48:00,71.9,71.3,30.25,SW,224,0.0,0.0,98,0.00,,CLR,0.00,VWS V14.01,2013-07-05 04:48:00,
2013-07-05 00:53:00,71.9,71.4,30.24,SW,224,0.0,0.0,98,0.00,,CLR,0.00,VWS V14.01,2013-07-05 04:53:00,
2013-07-05 00:59:00,71.9,71.4,30.24,SW,224,0.0,0.0,98,0.00,,CLR,0.00,VWS V14.01,2013-07-05 04:59:00,
2013-07-05 01:04:00,71.8,71.3,30.24,SW,224,0.0,0.0,98,0.00,,CLR,0.00,VWS V14.01,2013-07-05 05:04:00,
2013-07-05 01:09:00,71.8,71.4,30.24,SW,224,0.0,0.0,99,0.00,,CLR,0.00,VWS V14.01,2013-07-05 05:09:00,
2013-07-05 01:14:00,71.7,71.3,30.24,SW,224,0.0,0.0,99,0.00,,CLR,0.00,VWS V14.01,2013-07-05 05:14:00,
2013-07-05 01:19:00,71.7,71.4,30.24,SW,224,0.0,0.0,99,0.00,,CLR,0.00,VWS V14.01,2013-07-05 05:19:00,
2013-07-05 01:24:00,71.7,71.4,30.24,SW,224,0.0,0.0,99,0.00,,CLR,0.00,VWS V14.01,2013-07-05 05:24:00,
2013-07-05 01:29:00,71.6,71.3,30.24,SW,224,0.0,0.0,99,0.00,,CLR,0.00,VWS V14.01,2013-07-05 05:29:00,
2013-07-05 01:34:00,71.5,71.2,30.23,SW,224,0.0,0.0,99,0.00,,CLR,0.00,VWS V14.01,2013-07-05 05:34:00,
2013-07-05 01:39:00,71.5,71.3,30.23,SW,224,0.0,0.0,99,0.00,,CLR,0.00,VWS V14.01,2013-07-05 05:39:00,
2013-07-05 01:44:00,71.4,71.2,30.23,SW,224,0.0,0.0,99,0.00,,CLR,0.00,VWS V14.01,2013-07-05 05:44:00,
2013-07-05 01:50:00,71.3,71.1,30.23,SW,224,0.0,0.0,99,0.00,,CLR,0.00,VWS V14.01,2013-07-05 05:50:00,
2013-07-05 01:55:00,71.3,71.2,30.23,SW,224,0.0,0.0,100,0.00,,CLR,0.00,VWS V14.01,2013-07-05 05:55:00,
2013-07-05 02:00:00,71.2,71.1,30.24,SW,224,0.0,0.0,100,0.00,,CLR,0.00,VWS V14.01,2013-07-05 06:00:00,
2013-07-05 02:05:00,71.2,71.1,30.23,SW,224,0.0,0.0,100,0.00,,CLR,0.00,VWS V14.01,2013-07-05 06:05:00,
2013-07-05 02:10:00,71.1,71.1,30.24,SW,224,0.0,0.0,100,0.00,,CLR,0.00,VWS V14.01,2013-07-05 06:10:00,
2013-07-05 02:15:00,71.0,71.0,30.23,SW,224,0.0,0.0,100,0.00,,CLR,0.00,VWS V14.01,2013-07-05 06:15:00,
2013-07-05 02:20:00,71.1,71.1,30.24,SW,224,0.0,0.0,100,0.00,,CLR,0.00,VWS V14.01,2013-07-05 06:20:00,
2013-07-05 02:25:00,71.0,71.0,30.23,SW,224,0.0,0.0,100,0.00,,CLR,0.00,VWS V14.01,2013-07-05 06:25:00,
2013-07-05 02:31:00,70.9,70.9,30.23,SW,224,0.0,0.0,100,0.00,,CLR,0.00,VWS V14.01,2013-07-05 06:31:00,
2013-07-05 02:36:00,70.9,70.9,30.23,SW,224,0.0,0.0,100,0.00,,CLR,0.00,VWS V14.01,2013-07-05 06:36:00,
2013-07-05 02:41:00,70.9,70.9,30.24,SW,224,0.0,0.0,100,0.00,,CLR,0.00,VWS V14.01,2013-07-05 06:41:00,
2013-07-05 02:46:00,70.9,70.9,30.23,SW,224,0.0,0.0,100,0.00,,CLR,0.00,VWS V14.01,2013-07-05 06:46:00,
2013-07-05 02:51:00,70.9,70.9,30.23,SW,224,0.0,0.0,100,0.00,,CLR,0.00,VWS V14.01,2013-07-05 06:51:00,
2013-07-05 02:56:00,70.9,70.9,30.22,SW,224,0.0,0.0,100,0.00,,CLR,0.00,VWS V14.01,2013-07-05 06:56:00,
2013-07-05 03:01:00,70.9,70.9,30.23,SW,224,0.0,0.0,100,0.00,,CLR,0.00,VWS V14.01,2013-07-05 07:01:00,
2013-07-05 03:06:00,70.9,70.9,30.23,SW,224,0.0,0.0,100,0.00,,CLR,0.00,VWS V14.01,2013-07-05 07:06:00,
2013-07-05 03:11:00,70.9,70.9,30.24,SW,224,0.0,0.0,100,0.00,,CLR,0.00,VWS V14.01,2013-07-05 07:11:00,
2013-07-05 03:17:00,70.9,70.9,30.23,SW,224,0.0,0.0,100,0.00,,CLR,0.00,VWS V14.01,2013-07-05 07:17:00,
2013-07-05 03:22:00,70.9,70.9,30.23,SW,224,0.0,0.0,100,0.00,,CLR,0.00,VWS V14.01,2013-07-05 07:22:00,
2013-07-05 03:27:00,71.0,71.0,30.24,SW,224,0.0,0.0,100,0.00,,CLR,0.00,VWS V14.01,2013-07-05 07:27:00,
2013-07-05 03:32:00,71.1,71.1,30.24,SW,224,0.0,0.0,100,0.00,,CLR,0.00,VWS V14.01,2013-07-05 07:32:00,
2013-07-05 03:37:00,71.2,71.2,30.23,SW,224,0.0,0.0,100,0.00,,CLR,0.00,VWS V14.01,2013-07-05 07:37:00,
2013-07-05 03:42:00,71.1,71.1,30.23,SW,224,0.0,0.0,100,0.00,,CLR,0.00,VWS V14.01,2013-07-05 07:42:00,
2013-07-05 03:47:00,71.1,71.1,30.22,SW,224,0.0,0.0,100,0.00,,CLR,0.00,VWS V14.01,2013-07-05 07:47:00,
2013-07-05 03:52:00,71.2,71.2,30.23,SW,224,0.0,0.0,100,0.00,,CLR,0.00,VWS V14.01,2013-07-05 07:52:00,
2013-07-05 03:58:00,71.4,71.4,30.23,SW,224,0.0,0.0,100,0.00,,CLR,0.00,VWS V14.01,2013-07-05 07:58:00,
2013-07-05 04:03:00,71.4,71.4,30.23,SW,224,0.0,0.0,100,0.00,,CLR,0.00,VWS V14.01,2013-07-05 08:03:00,
2013-07-05 04:08:00,71.4,71.4,30.22,SW,224,0.0,0.0,100,0.00,,CLR,0.00,VWS V14.01,2013-07-05 08:08:00,
2013-07-05 04:13:00,71.5,71.5,30.23,SW,224,0.0,0.0,100,0.00,,CLR,0.00,VWS V14.01,2013-07-05 08:13:00,
2013-07-05 04:18:00,71.6,71.6,30.23,SW,224,0.0,0.0,100,0.00,,CLR,0.00,VWS V14.01,2013-07-05 08:18:00,
2013-07-05 04:23:00,71.5,71.5,30.23,SW,224,0.0,0.0,100,0.00,,CLR,0.00,VWS V14.01,2013-07-05 08:23:00,
2013-07-05 04:28:00,71.5,71.5,30.23,SW,224,0.0,0.0,100,0.00,,CLR,0.00,VWS V14.01,2013-07-05 08:28:00,
2013-07-05 04:33:00,71.5,71.5,30.23,SW,224,0.0,0.0,100,0.00,,CLR,0.00,VWS V14.01,2013-07-05 08:33:00,
2013-07-05 04:39:00,71.5,71.5,30.23,SW,224,0.0,0.0,100,0.00,,CLR,0.00,VWS V14.01,2013-07-05 08:39:00,
2013-07-05 04:44:00,71.7,71.7,30.24,SW,224,0.0,0.0,100,0.00,,CLR,0.00,VWS V14.01,2013-07-05 08:44:00,
2013-07-05 04:49:00,71.6,71.6,30.23,SW,224,0.0,0.0,100,0.00,,CLR,0.00,VWS V14.01,2013-07-05 08:49:00,
2013-07-05 04:54:00,71.5,71.5,30.23,SW,224,0.0,0.0,100,0.00,,CLR,0.00,VWS V14.01,2013-07-05 08:54:00,
2013-07-05 05:00:00,71.5,71.5,30.23,SW,224,0.0,0.0,100,0.00,,CLR,0.00,VWS V14.01,2013-07-05 09:00:00,
2013-07-05 05:05:00,71.5,71.5,30.24,SW,224,0.0,0.0,100,0.00,,CLR,0.00,VWS V14.01,2013-07-05 09:05:00,
2013-07-05 05:10:00,71.4,71.4,30.23,SW,224,0.0,0.0,100,0.00,,CLR,0.00,VWS V14.01,2013-07-05 09:10:00,
2013-07-05 05:15:00,71.4,71.4,30.23,SW,224,0.0,0.0,100,0.00,,CLR,0.00,VWS V14.01,2013-07-05 09:15:00,
2013-07-05 05:20:00,71.3,71.3,30.23,SW,224,0.0,0.0,100,0.00,,CLR,0.00,VWS V14.01,2013-07-05 09:20:00,
2013-07-05 05:25:00,71.4,71.4,30.24,SW,224,0.0,0.0,100,0.00,,CLR,0.00,VWS V14.01,2013-07-05 09:25:00,
2013-07-05 05:30:00,71.3,71.3,30.24,SW,224,0.0,0.0,100,0.00,,CLR,0.00,VWS V14.01,2013-07-05 09:30:00,
2013-07-05 05:36:00,71.2,71.2,30.24,SW,224,0.0,0.0,100,0.00,,CLR,0.00,VWS V14.01,2013-07-05 09:36:00,
2013-07-05 05:41:00,71.2,71.2,30.24,SW,224,0.0,0.0,100,0.00,,CLR,0.00,VWS V14.01,2013-07-05 09:41:00,
2013-07-05 05:46:00,71.3,71.3,30.25,SW,224,0.0,0.0,100,0.00,,CLR,0.00,VWS V14.01,2013-07-05 09:46:00,
2013-07-05 05:51:00,71.3,71.3,30.25,SW,224,0.0,0.0,100,0.00,,CLR,0.00,VWS V14.01,2013-07-05 09:51:00,
2013-07-05 05:56:00,71.3,71.3,30.24,SW,224,0.0,0.0,100,0.00,,CLR,0.00,VWS V14.01,2013-07-05 09:56:00,
2013-07-05 06:01:00,71.2,71.2,30.24,SW,224,0.0,0.0,100,0.00,,CLR,0.00,VWS V14.01,2013-07-05 10:01:00,
2013-07-05 06:06:00,71.2,71.2,30.25,SW,224,0.0,0.0,100,0.00,,CLR,0.00,VWS V14.01,2013-07-05 10:06:00,
2013-07-05 06:11:00,71.1,71.1,30.25,SW,224,0.0,0.0,100,0.00,,CLR,0.00,VWS V14.01,2013-07-05 10:11:00,
2013-07-05 06:17:00,71.3,71.3,30.25,SW,224,0.0,0.0,100,0.00,,CLR,0.00,VWS V14.01,2013-07-05 10:17:00,
2013-07-05 06:22:00,71.2,71.2,30.24,SW,224,0.0,0.0,100,0.00,,CLR,0.00,VWS V14.01,2013-07-05 10:22:00,
2013-07-05 06:27:00,71.2,71.2,30.25,SW,224,0.0,0.0,100,0.00,,CLR,0.00,VWS V14.01,2013-07-05 10:27:00,
2013-07-05 06:33:00,71.3,71.3,30.26,SW,224,0.0,0.0,100,0.00,,CLR,0.00,VWS V14.01,2013-07-05 10:33:00,
2013-07-05 06:38:00,71.3,71.3,30.25,SW,224,0.0,0.0,100,0.00,,CLR,0.00,VWS V14.01,2013-07-05 10:38:00,
2013-07-05 06:43:00,71.5,71.5,30.25,SW,224,0.0,0.0,100,0.00,,CLR,0.00,VWS V14.01,2013-07-05 10:43:00,
2013-07-05 06:48:00,71.7,71.7,30.25,SW,224,0.0,0.0,100,0.00,,CLR,0.00,VWS V14.01,2013-07-05 10:48:00,
2013-07-05 06:53:00,72.1,72.1,30.25,SW,224,0.0,0.0,100,0.00,,CLR,0.00,VWS V14.01,2013-07-05 10:53:00,
2013-07-05 06:58:00,72.7,72.7,30.25,SW,224,0.0,0.0,100,0.00,,CLR,0.00,VWS V14.01,2013-07-05 10:58:00,
2013-07-05 07:04:00,73.0,73.0,30.25,SW,224,0.0,3.2,100,0.00,,CLR,0.00,VWS V14.01,2013-07-05 11:04:00,
2013-07-05 07:09:00,73.2,73.2,30.25,SW,224,0.0,3.2,100,0.00,,CLR,0.00,VWS V14.01,2013-07-05 11:09:00,
2013-07-05 07:14:00,73.5,73.5,30.24,SW,224,0.0,0.0,100,0.00,,CLR,0.00,VWS V14.01,2013-07-05 11:14:00,
2013-07-05 07:19:00,73.6,73.6,30.24,SW,224,0.0,0.0,100,0.00,,CLR,0.00,VWS V14.01,2013-07-05 11:19:00,
2013-07-05 07:24:00,73.8,73.8,30.25,SW,224,0.0,0.0,100,0.00,,CLR,0.00,VWS V14.01,2013-07-05 11:24:00,
2013-07-05 07:29:00,74.0,74.0,30.24,SW,224,0.0,3.0,100,0.00,,CLR,0.00,VWS V14.01,2013-07-05 11:29:00,
2013-07-05 07:35:00,74.2,74.2,30.24,SW,224,0.0,0.0,100,0.00,,CLR,0.00,VWS V14.01,2013-07-05 11:35:00,
2013-07-05 07:40:00,74.4,74.4,30.25,SW,224,0.0,0.0,100,0.00,,CLR,0.00,VWS V14.01,2013-07-05 11:40:00,
2013-07-05 07:45:00,74.7,74.7,30.26,SW,224,0.0,0.0,100,0.00,,CLR,0.00,VWS V14.01,2013-07-05 11:45:00,
2013-07-05 07:50:00,74.9,74.9,30.25,SW,224,0.0,0.0,100,0.00,,CLR,0.00,VWS V14.01,2013-07-05 11:50:00,
2013-07-05 07:55:00,75.1,75.1,30.25,SW,224,0.0,0.0,100,0.00,,CLR,0.00,VWS V14.01,2013-07-05 11:55:00,
2013-07-05 08:00:00,75.6,75.4,30.25,East,79,0.0,4.2,99,0.00,,CLR,0.00,VWS V14.01,2013-07-05 12:00:00,
2013-07-05 08:05:00,75.8,75.3,30.25,East,79,0.0,0.0,98,0.00,,CLR,0.00,VWS V14.01,2013-07-05 12:05:00,
2013-07-05 08:10:00,76.0,75.2,30.25,ESE,103,0.0,7.0,98,0.00,,CLR,0.00,VWS V14.01,2013-07-05 12:10:00,
2013-07-05 08:15:00,76.3,75.3,30.24,ESE,103,0.0,0.0,97,0.00,,CLR,0.00,VWS V14.01,2013-07-05 12:15:00,
2013-07-05 08:20:00,76.6,75.3,30.25,South,172,0.0,7.7,96,0.00,,CLR,0.00,VWS V14.01,2013-07-05 12:20:00,
2013-07-05 08:25:00,77.0,75.3,30.25,WSW,243,0.0,4.5,94,0.00,,CLR,0.00,VWS V14.01,2013-07-05 12:25:00,
2013-07-05 08:30:00,77.3,75.5,30.25,SSW,210,0.0,4.5,94,0.00,,CLR,0.00,VWS V14.01,2013-07-05 12:30:00,
2013-07-05 08:36:00,77.3,75.4,30.25,SSW,210,0.0,0.0,94,0.00,,CLR,0.00,VWS V14.01,2013-07-05 12:36:00,
2013-07-05 08:41:00,77.2,75.1,30.25,SE,131,0.0,8.0,93,0.00,,CLR,0.00,VWS V14.01,2013-07-05 12:41:00,
2013-07-05 08:46:00,77.5,75.2,30.25,SW,228,0.0,4.2,93,0.00,,CLR,0.00,VWS V14.01,2013-07-05 12:46:00,
2013-07-05 08:51:00,77.4,75.0,30.25,SW,228,0.0,4.2,92,0.00,,CLR,0.00,VWS V14.01,2013-07-05 12:51:00,
2013-07-05 08:56:00,77.7,75.1,30.25,SW,228,0.0,0.0,92,0.00,,CLR,0.00,VWS V14.01,2013-07-05 12:56:00,
2013-07-05 09:02:00,78.1,75.2,30.25,South,184,0.0,0.0,91,0.00,,SCT018,0.00,VWS V14.01,2013-07-05 13:02:00,
2013-07-05 09:07:00,78.4,75.4,30.25,South,184,0.0,0.0,90,0.00,,SCT018,0.00,VWS V14.01,2013-07-05 13:07:00,
2013-07-05 09:12:00,78.7,75.6,30.24,South,184,0.0,0.0,90,0.00,,SCT018,0.00,VWS V14.01,2013-07-05 13:12:00,
2013-07-05 09:17:00,78.7,75.5,30.24,South,184,0.0,0.0,90,0.00,,SCT018,0.00,VWS V14.01,2013-07-05 13:17:00,
2013-07-05 09:22:00,78.4,75.1,30.24,WSW,250,0.0,0.0,90,0.00,,SCT018,0.00,VWS V14.01,2013-07-05 13:22:00,
2013-07-05 09:27:00,78.3,74.9,30.24,WSW,250,0.0,0.0,89,0.00,,SCT018,0.00,VWS V14.01,2013-07-05 13:27:00,
2013-07-05 09:32:00,78.9,74.6,30.23,South,181,0.0,1.5,87,0.00,,SCT018,0.00,VWS V14.01,2013-07-05 13:32:00,
2013-07-05 09:37:00,79.2,74.3,30.23,NE,44,0.0,3.4,85,0.00,,SCT018,0.00,VWS V14.01,2013-07-05 13:37:00,
2013-07-05 09:42:00,79.7,75.2,30.23,NE,44,0.0,0.0,86,0.00,,SCT018,0.00,VWS V14.01,2013-07-05 13:42:00,
2013-07-05 09:48:00,79.4,74.5,30.23,NE,44,0.0,0.0,85,0.00,,SCT018,0.00,VWS V14.01,2013-07-05 13:48:00,
2013-07-05 09:53:00,79.8,74.5,30.23,SE,138,0.0,2.2,84,0.00,,SCT018,0.00,VWS V14.01,2013-07-05 13:53:00,
2013-07-05 09:58:00,80.0,74.9,30.23,WSW,249,0.0,5.3,84,0.00,,SCT018,0.00,VWS V14.01,2013-07-05 13:58:00,
2013-07-05 10:03:00,79.9,74.6,30.23,WSW,242,0.0,8.1,84,0.00,,FEW020,0.00,VWS V14.01,2013-07-05 14:03:00,
2013-07-05 10:09:00,80.0,74.4,30.23,ENE,58,0.0,8.1,83,0.00,,FEW020,0.00,VWS V14.01,2013-07-05 14:09:00,
2013-07-05 10:14:00,80.3,74.4,30.23,ENE,58,0.0,0.0,82,0.00,,FEW020,0.00,VWS V14.01,2013-07-05 14:14:00,
2013-07-05 10:19:00,80.5,74.0,30.23,North,359,0.0,5.7,81,0.00,,FEW020,0.00,VWS V14.01,2013-07-05 14:19:00,
2013-07-05 10:25:00,80.6,74.3,30.23,NW,314,0.0,4.5,81,0.00,,FEW020,0.00,VWS V14.01,2013-07-05 14:25:00,
2013-07-05 10:30:00,80.5,74.2,30.23,NW,314,0.0,4.5,81,0.00,,FEW020,0.00,VWS V14.01,2013-07-05 14:30:00,
2013-07-05 10:35:00,80.5,74.2,30.24,SW,229,0.0,5.2,81,0.00,,FEW020,0.00,VWS V14.01,2013-07-05 14:35:00,
2013-07-05 10:40:00,81.1,74.5,30.23,WSW,239,0.0,5.7,80,0.00,,FEW020,0.00,VWS V14.01,2013-07-05 14:40:00,
2013-07-05 10:45:00,81.1,73.9,30.23,SSW,200,0.0,6.3,79,0.00,,FEW020,0.00,VWS V14.01,2013-07-05 14:45:00,
2013-07-05 10:50:00,81.5,74.1,30.23,SSW,200,2.8,6.3,78,0.00,,FEW020,0.00,VWS V14.01,2013-07-05 14:50:00,
2013-07-05 10:55:00,81.6,74.9,30.23,SSW,200,0.0,0.0,80,0.00,,FEW020,0.00,VWS V14.01,2013-07-05 14:55:00,
2013-07-05 11:00:00,81.5,74.9,30.23,SSW,200,0.0,0.0,80,0.00,,FEW020,0.00,VWS V14.01,2013-07-05 15:00:00,
2013-07-05 11:05:00,81.5,75.5,30.23,SSW,200,0.0,0.0,82,0.00,,CLR,0.00,VWS V14.01,2013-07-05 15:05:00,
2013-07-05 11:10:00,81.4,74.8,30.23,SSW,200,0.0,0.0,80,0.00,,CLR,0.00,VWS V14.01,2013-07-05 15:10:00,
2013-07-05 11:16:00,81.7,73.9,30.23,SSW,200,0.0,0.0,77,0.00,,CLR,0.00,VWS V14.01,2013-07-05 15:16:00,
2013-07-05 11:21:00,82.1,74.3,30.23,SSW,200,0.0,0.0,77,0.00,,CLR,0.00,VWS V14.01,2013-07-05 15:21:00,
2013-07-05 11:26:00,82.4,75.3,30.22,SSW,200,0.0,0.0,79,0.00,,CLR,0.00,VWS V14.01,2013-07-05 15:26:00,
2013-07-05 11:31:00,82.6,75.8,30.23,NNE,25,0.0,6.1,80,0.00,,CLR,0.00,VWS V14.01,2013-07-05 15:31:00,
2013-07-05 11:36:00,82.6,74.9,30.22,NNE,25,0.0,0.0,78,0.00,,CLR,0.00,VWS V14.01,2013-07-05 15:36:00,
2013-07-05 11:41:00,83.2,75.7,30.22,NNE,25,0.0,0.0,78,0.00,,CLR,0.00,VWS V14.01,2013-07-05 15:41:00,
2013-07-05 11:46:00,83.5,74.1,30.22,WSW,238,0.0,7.0,74,0.00,,CLR,0.00,VWS V14.01,2013-07-05 15:46:00,
2013-07-05 11:49:00,83.7,76.3,30.22,WSW,238,0.0,7.0,79,0.00,,CLR,0.00,VWS V14.01,2013-07-05 15:49:00,
2013-07-05 11:54:00,84.0,74.5,30.22,WSW,238,0.0,0.0,73,0.00,,CLR,0.00,VWS V14.01,2013-07-05 15:54:00,
2013-07-05 12:00:00,83.9,74.7,30.22,South,173,0.0,3.5,74,0.00,,CLR,0.00,VWS V14.01,2013-07-05 16:00:00,
2013-07-05 12:05:00,84.0,75.8,30.21,WNW,283,0.0,3.4,76,0.00,,SCT029,0.00,VWS V14.01,2013-07-05 16:05:00,
2013-07-05 12:10:00,83.8,73.9,30.22,SW,229,0.0,9.0,72,0.00,,SCT029,0.00,VWS V14.01,2013-07-05 16:10:00,
2013-07-05 12:15:00,84.0,74.0,30.22,SSW,212,2.9,8.4,72,0.00,,SCT029,0.00,VWS V14.01,2013-07-05 16:15:00,
2013-07-05 12:20:00,84.5,74.9,30.21,SSW,212,0.0,8.4,73,0.00,,SCT029,0.00,VWS V14.01,2013-07-05 16:20:00,
2013-07-05 12:25:00,85.1,73.8,30.21,SSW,212,0.0,0.0,69,0.00,,SCT029,0.00,VWS V14.01,2013-07-05 16:25:00,
2013-07-05 12:30:00,85.6,75.2,30.21,ENE,65,0.0,5.2,71,0.00,,SCT029,0.00,VWS V14.01,2013-07-05 16:30:00,
2013-07-05 12:35:00,85.7,76.2,30.21,ENE,65,0.0,0.0,73,0.00,,SCT029,0.00,VWS V14.01,2013-07-05 16:35:00,
2013-07-05 12:40:00,85.7,74.7,30.20,ENE,65,0.0,0.0,70,0.00,,SCT029,0.00,VWS V14.01,2013-07-05 16:40:00,
2013-07-05 12:46:00,85.9,75.2,30.20,West,260,0.0,2.9,70,0.00,,SCT029,0.00,VWS V14.01,2013-07-05 16:46:00,
2013-07-05 12:51:00,86.1,75.7,30.20,East,79,0.0,3.2,71,0.00,,SCT029,0.00,VWS V14.01,2013-07-05 16:51:00,
2013-07-05 12:56:00,86.7,77.1,30.20,East,79,0.0,0.0,73,0.00,,SCT029,0.00,VWS V14.01,2013-07-05 16:56:00,
2013-07-05 13:01:00,86.7,76.7,30.20,East,79,0.0,2.6,72,0.00,,SCT029,0.00,VWS V14.01,2013-07-05 17:01:00,
2013-07-05 13:06:00,86.9,76.2,30.20,SSW,204,0.0,5.0,71,0.00,,FEW037,0.00,VWS V14.01,2013-07-05 17:06:00,
2013-07-05 13:11:00,86.9,74.0,30.20,NW,314,0.0,5.0,66,0.00,,FEW037,0.00,VWS V14.01,2013-07-05 17:11:00,
2013-07-05 13:16:00,87.0,75.1,30.20,NW,314,2.7,2.7,68,0.00,,FEW037,0.00,VWS V14.01,2013-07-05 17:16:00,
2013-07-05 13:21:00,87.1,75.1,30.19,North,359,0.0,0.0,68,0.00,,FEW037,0.00,VWS V14.01,2013-07-05 17:21:00,
2013-07-05 13:26:00,87.5,76.7,30.20,North,359,0.0,0.0,70,0.00,,FEW037,0.00,VWS V14.01,2013-07-05 17:26:00,
2013-07-05 13:31:00,87.4,76.1,30.20,North,359,0.0,0.0,69,0.00,,FEW037,0.00,VWS V14.01,2013-07-05 17:31:00,
2013-07-05 13:37:00,87.3,75.2,30.20,North,359,0.0,0.0,68,0.00,,FEW037,0.00,VWS V14.01,2013-07-05 17:37:00,
2013-07-05 13:42:00,87.6,72.5,30.20,South,173,0.0,6.4,61,0.00,,FEW037,0.00,VWS V14.01,2013-07-05 17:42:00,
2013-07-05 13:47:00,87.8,74.6,30.20,South,173,0.0,6.4,65,0.00,,FEW037,0.00,VWS V14.01,2013-07-05 17:47:00,
2013-07-05 13:52:00,87.3,75.3,30.20,South,173,0.0,0.0,68,0.00,,FEW037,0.00,VWS V14.01,2013-07-05 17:52:00,
2013-07-05 13:57:00,87.1,75.0,30.19,WNW,300,0.0,7.2,67,0.00,,FEW037,0.00,VWS V14.01,2013-07-05 17:57:00,
2013-07-05 14:02:00,86.9,74.2,30.19,North,6,0.0,0.0,66,0.00,,FEW041,0.00,VWS V14.01,2013-07-05 18:02:00,
2013-07-05 14:07:00,86.8,73.7,30.19,WNW,301,4.3,10.8,65,0.00,,FEW041,0.00,VWS V14.01,2013-07-05 18:07:00,
2013-07-05 14:12:00,87.4,75.0,30.19,WNW,301,0.0,0.0,67,0.00,,FEW041,0.00,VWS V14.01,2013-07-05 18:12:00,
2013-07-05 14:13:00,87.4,75.2,30.19,WNW,301,0.0,0.0,67,0.00,,FEW041,0.00,VWS V14.01,2013-07-05 18:13:00,
2013-07-05 14:18:00,87.6,73.0,30.19,SSW,194,0.0,7.3,62,0.00,,FEW041,0.00,VWS V14.01,2013-07-05 18:18:00,
2013-07-05 14:23:00,88.0,75.2,30.19,SSW,194,0.0,0.0,66,0.00,,FEW041,0.00,VWS V14.01,2013-07-05 18:23:00,
2013-07-05 14:28:00,88.2,76.0,30.19,SSW,194,0.0,0.0,67,0.00,,FEW041,0.00,VWS V14.01,2013-07-05 18:28:00,
2013-07-05 14:33:00,88.1,75.7,30.19,SSW,194,0.0,0.0,67,0.00,,FEW041,0.00,VWS V14.01,2013-07-05 18:33:00,
2013-07-05 14:38:00,87.9,71.3,30.19,WSW,242,0.0,5.0,58,0.00,,FEW041,0.00,VWS V14.01,2013-07-05 18:38:00,
2013-07-05 14:43:00,88.3,73.2,30.19,ENE,58,0.0,5.7,61,0.00,,FEW041,0.00,VWS V14.01,2013-07-05 18:43:00,
2013-07-05 14:48:00,88.5,74.2,30.18,ENE,58,0.0,5.7,63,0.00,,FEW041,0.00,VWS V14.01,2013-07-05 18:48:00,
2013-07-05 14:54:00,87.8,73.6,30.18,ENE,58,0.0,2.9,63,0.00,,FEW041,0.00,VWS V14.01,2013-07-05 18:54:00,
2013-07-05 14:59:00,87.5,74.4,30.18,South,184,0.0,5.8,65,0.00,,FEW041,0.00,VWS V14.01,2013-07-05 18:59:00,
2013-07-05 15:04:00,87.4,73.6,30.18,West,274,0.0,0.0,64,0.00,,CLR,0.00,VWS V14.01,2013-07-05 19:04:00,
2013-07-05 15:09:00,87.7,72.9,30.18,WSW,255,0.0,4.8,62,0.00,,CLR,0.00,VWS V14.01,2013-07-05 19:09:00,
2013-07-05 15:14:00,88.3,74.5,30.17,East,90,0.0,5.6,64,0.00,,CLR,0.00,VWS V14.01,2013-07-05 19:14:00,
2013-07-05 15:15:00,88.4,74.7,30.17,East,90,0.0,5.6,64,0.00,,CLR,0.00,VWS V14.01,2013-07-05 19:15:00,
2013-07-05 15:20:00,88.5,73.5,30.17,SSW,212,0.0,8.6,61,0.00,,CLR,0.00,VWS V14.01,2013-07-05 19:20:00,
2013-07-05 15:25:00,88.9,71.6,30.17,SW,225,2.7,10.9,57,0.00,,CLR,0.00,VWS V14.01,2013-07-05 19:25:00,
2013-07-05 15:30:00,89.3,74.9,30.17,SW,225,0.0,10.9,63,0.00,,CLR,0.00,VWS V14.01,2013-07-05 19:30:00,
2013-07-05 15:35:00,89.2,74.2,30.16,SW,225,0.0,0.0,61,0.00,,CLR,0.00,VWS V14.01,2013-07-05 19:35:00,
2013-07-05 15:38:00,89.3,73.8,30.17,NE,52,0.0,2.2,60,0.00,,CLR,0.00,VWS V14.01,2013-07-05 19:38:00,
2013-07-05 15:43:00,89.2,75.6,30.17,NE,52,0.0,0.0,64,0.00,,CLR,0.00,VWS V14.01,2013-07-05 19:43:00,
2013-07-05 15:48:00,89.4,73.5,30.16,NE,52,0.0,0.0,60,0.00,,CLR,0.00,VWS V14.01,2013-07-05 19:48:00,
2013-07-05 15:53:00,89.4,70.8,30.17,West,266,0.0,7.6,54,0.00,,CLR,0.00,VWS V14.01,2013-07-05 19:53:00,
2013-07-05 15:58:00,89.6,71.1,30.16,WSW,240,4.5,10.3,55,0.00,,CLR,0.00,VWS V14.01,2013-07-05 19:58:00,
2013-07-05 16:03:00,89.9,72.0,30.16,WSW,255,0.0,2.9,56,0.00,,FEW045,0.00,VWS V14.01,2013-07-05 20:03:00,
2013-07-05 16:05:00,90.0,73.0,30.16,WSW,255,0.0,2.9,58,0.00,,FEW045,0.00,VWS V14.01,2013-07-05 20:05:00,
2013-07-05 16:10:00,89.9,73.5,30.16,SW,219,0.0,5.3,59,0.00,,FEW045,0.00,VWS V14.01,2013-07-05 20:10:00,
2013-07-05 16:15:00,89.4,75.4,30.16,WNW,284,0.0,5.6,64,0.00,,FEW045,0.00,VWS V14.01,2013-07-05 20:15:00,
2013-07-05 16:20:00,89.1,73.9,30.16,SE,143,1.4,5.6,61,0.00,,FEW045,0.00,VWS V14.01,2013-07-05 20:20:00,
2013-07-05 16:25:00,88.9,73.8,30.15,SSW,207,0.0,5.9,61,0.00,,FEW045,0.00,VWS V14.01,2013-07-05 20:25:00,
2013-07-05 16:30:00,88.7,74.3,30.15,SSW,207,0.0,5.9,63,0.00,,FEW045,0.00,VWS V14.01,2013-07-05 20:30:00,
2013-07-05 16:32:00,88.6,75.8,30.15,SSW,207,0.0,0.0,66,0.00,,FEW045,0.00,VWS V14.01,2013-07-05 20:32:00,
2013-07-05 16:37:00,88.5,76.5,30.15,SSW,207,0.0,0.0,68,0.00,,FEW045,0.00,VWS V14.01,2013-07-05 20:37:00,
2013-07-05 16:42:00,88.1,75.3,30.15,East,89,0.0,3.4,66,0.00,,FEW045,0.00,VWS V14.01,2013-07-05 20:42:00,
2013-07-05 16:47:00,87.4,74.7,30.15,North,3,0.0,8.3,66,0.00,,FEW045,0.00,VWS V14.01,2013-07-05 20:47:00,
2013-07-05 16:52:00,87.3,76.2,30.15,North,3,0.0,0.0,70,0.00,,FEW045,0.00,VWS V14.01,2013-07-05 20:52:00,
2013-07-05 16:57:00,86.6,74.7,30.15,WNW,287,0.0,5.7,68,0.00,,FEW045,0.00,VWS V14.01,2013-07-05 20:57:00,
2013-07-05 17:02:00,86.7,76.3,30.15,WNW,287,0.0,0.0,71,0.00,,CLR,0.00,VWS V14.01,2013-07-05 21:02:00,
2013-07-05 17:05:00,86.5,74.2,30.15,WNW,287,0.0,0.0,67,0.00,,CLR,0.00,VWS V14.01,2013-07-05 21:05:00,
2013-07-05 17:10:00,86.5,75.2,30.15,East,79,0.0,5.7,69,0.00,,CLR,0.00,VWS V14.01,2013-07-05 21:10:00,
2013-07-05 17:15:00,86.4,75.6,30.14,SSE,148,0.0,4.9,70,0.00,,CLR,0.00,VWS V14.01,2013-07-05 21:15:00,
2013-07-05 17:20:00,86.2,75.6,30.14,WNW,287,4.7,7.1,71,0.00,,CLR,0.00,VWS V14.01,2013-07-05 21:20:00,
2013-07-05 17:25:00,85.9,75.0,30.14,NW,318,0.0,5.5,70,0.00,,CLR,0.00,VWS V14.01,2013-07-05 21:25:00,
2013-07-05 17:30:00,85.8,75.8,30.14,SSW,195,0.0,7.0,72,0.00,,CLR,0.00,VWS V14.01,2013-07-05 21:30:00,
2013-07-05 17:35:00,85.7,76.0,30.14,WSW,245,0.0,4.6,73,0.00,,CLR,0.00,VWS V14.01,2013-07-05 21:35:00,
2013-07-05 17:40:00,85.3,75.9,30.14,WNW,300,0.0,5.3,74,0.00,,CLR,0.00,VWS V14.01,2013-07-05 21:40:00,
2013-07-05 17:45:00,85.2,74.8,30.14,WNW,300,0.0,0.0,71,0.00,,CLR,0.00,VWS V14.01,2013-07-05 21:45:00,
2013-07-05 17:50:00,85.2,75.4,30.14,SW,219,0.0,6.0,73,0.00,,CLR,0.00,VWS V14.01,2013-07-05 21:50:00,
2013-07-05 17:55:00,84.9,74.9,30.14,SW,219,0.0,0.0,72,0.00,,CLR,0.00,VWS V14.01,2013-07-05 21:55:00,
2013-07-05 18:00:00,84.7,75.5,30.13,SW,219,0.0,0.0,74,0.00,,CLR,0.00,VWS V14.01,2013-07-05 22:00:00,
2013-07-05 18:05:00,84.2,74.7,30.14,SW,219,0.0,0.0,73,0.00,,FEW045,0.00,VWS V14.01,2013-07-05 22:05:00,
2013-07-05 18:10:00,84.1,74.7,30.13,SW,219,0.0,0.0,74,0.00,,FEW045,0.00,VWS V14.01,2013-07-05 22:10:00,
2013-07-05 18:16:00,84.1,75.4,30.13,SW,219,0.0,0.0,75,0.00,,FEW045,0.00,VWS V14.01,2013-07-05 22:16:00,
2013-07-05 18:21:00,83.7,74.4,30.13,SSW,205,0.0,3.4,74,0.00,,FEW045,0.00,VWS V14.01,2013-07-05 22:21:00,
2013-07-05 18:26:00,83.7,75.2,30.13,SSW,205,0.0,0.0,76,0.00,,FEW045,0.00,VWS V14.01,2013-07-05 22:26:00,
2013-07-05 18:31:00,83.6,74.8,30.13,SSW,205,0.0,0.0,75,0.00,,FEW045,0.00,VWS V14.01,2013-07-05 22:31:00,
2013-07-05 18:36:00,83.4,74.7,30.13,SSW,205,0.0,0.0,75,0.00,,FEW045,0.00,VWS V14.01,2013-07-05 22:36:00,
2013-07-05 18:41:00,83.3,75.6,30.13,SSW,205,0.0,0.0,78,0.00,,FEW045,0.00,VWS V14.01,2013-07-05 22:41:00,
2013-07-05 18:46:00,83.2,75.9,30.13,North,352,0.0,3.5,79,0.00,,FEW045,0.00,VWS V14.01,2013-07-05 22:46:00,
2013-07-05 18:51:00,82.9,75.8,30.13,North,352,0.0,0.0,79,0.00,,FEW045,0.00,VWS V14.01,2013-07-05 22:51:00,
2013-07-05 18:56:00,82.5,75.9,30.13,North,352,0.0,0.0,80,0.00,,FEW045,0.00,VWS V14.01,2013-07-05 22:56:00,
2013-07-05 19:02:00,82.4,75.8,30.13,North,352,0.0,0.0,80,0.00,,CLR,0.00,VWS V14.01,2013-07-05 23:02:00,
2013-07-05 19:07:00,82.3,75.7,30.13,North,352,0.0,0.0,81,0.00,,CLR,0.00,VWS V14.01,2013-07-05 23:07:00,
2013-07-05 19:12:00,82.2,75.7,30.13,North,352,0.0,0.0,81,0.00,,CLR,0.00,VWS V14.01,2013-07-05 23:12:00,
2013-07-05 19:17:00,82.0,75.6,30.13,North,352,0.0,0.0,81,0.00,,CLR,0.00,VWS V14.01,2013-07-05 23:17:00,
2013-07-05 19:22:00,81.9,75.7,30.13,North,352,0.0,0.0,81,0.00,,CLR,0.00,VWS V14.01,2013-07-05 23:22:00,
2013-07-05 19:27:00,81.7,75.8,30.13,North,352,0.0,0.0,82,0.00,,CLR,0.00,VWS V14.01,2013-07-05 23:27:00,
2013-07-05 19:32:00,81.6,75.8,30.13,North,352,0.0,0.0,82,0.00,,CLR,0.00,VWS V14.01,2013-07-05 23:32:00,
2013-07-05 19:37:00,81.4,75.6,30.13,North,352,0.0,0.0,82,0.00,,CLR,0.00,VWS V14.01,2013-07-05 23:37:00,
2013-07-05 19:43:00,81.2,75.7,30.13,North,352,0.0,0.0,83,0.00,,CLR,0.00,VWS V14.01,2013-07-05 23:43:00,
2013-07-05 19:48:00,81.0,75.5,30.13,North,352,0.0,0.0,84,0.00,,CLR,0.00,VWS V14.01,2013-07-05 23:48:00,
2013-07-05 19:53:00,80.8,75.5,30.13,North,352,0.0,0.0,84,0.00,,CLR,0.00,VWS V14.01,2013-07-05 23:53:00,
2013-07-05 19:58:00,80.6,75.5,30.13,North,352,0.0,0.0,85,0.00,,CLR,0.00,VWS V14.01,2013-07-05 23:58:00,
2013-07-05 20:03:00,80.3,75.5,30.13,North,352,0.0,0.0,85,0.00,,CLR,0.00,VWS V14.01,2013-07-06 00:03:00,
2013-07-05 20:08:00,80.3,76.0,30.12,North,352,0.0,0.0,87,0.00,,CLR,0.00,VWS V14.01,2013-07-06 00:08:00,
2013-07-05 20:13:00,80.0,75.9,30.13,North,352,0.0,0.0,87,0.00,,CLR,0.00,VWS V14.01,2013-07-06 00:13:00,
2013-07-05 20:18:00,79.8,75.9,30.13,North,352,0.0,0.0,88,0.00,,CLR,0.00,VWS V14.01,2013-07-06 00:18:00,
2013-07-05 20:19:00,79.8,75.9,30.12,North,352,0.0,0.0,88,0.00,,CLR,0.00,VWS V14.01,2013-07-06 00:19:00,
2013-07-05 20:24:00,79.3,75.6,30.12,North,352,0.0,0.0,88,0.00,,CLR,0.00,VWS V14.01,2013-07-06 00:24:00,
2013-07-05 20:29:00,79.1,75.7,30.12,North,352,0.0,0.0,89,0.00,,CLR,0.00,VWS V14.01,2013-07-06 00:29:00,
2013-07-05 20:34:00,78.9,75.7,30.13,North,352,0.0,0.0,90,0.00,,CLR,0.00,VWS V14.01,2013-07-06 00:34:00,
2013-07-05 20:39:00,78.4,75.3,30.12,North,352,0.0,0.0,90,0.00,,CLR,0.00,VWS V14.01,2013-07-06 00:39:00,
2013-07-05 20:45:00,78.2,75.2,30.13,North,352,0.0,0.0,91,0.00,,CLR,0.00,VWS V14.01,2013-07-06 00:45:00,
2013-07-05 20:50:00,78.0,75.1,30.13,North,352,0.0,0.0,91,0.00,,CLR,0.00,VWS V14.01,2013-07-06 00:50:00,
2013-07-05 20:55:00,77.8,75.0,30.13,North,352,0.0,0.0,91,0.00,,CLR,0.00,VWS V14.01,2013-07-06 00:55:00,
2013-07-05 21:00:00,77.4,74.7,30.13,North,352,0.0,0.0,91,0.00,,CLR,0.00,VWS V14.01,2013-07-06 01:00:00,
2013-07-05 21:05:00,77.3,74.7,30.13,North,352,0.0,0.0,92,0.00,,CLR,0.00,VWS V14.01,2013-07-06 01:05:00,
2013-07-05 21:10:00,77.1,74.6,30.13,North,352,0.0,0.0,92,0.00,,CLR,0.00,VWS V14.01,2013-07-06 01:10:00,
2013-07-05 21:15:00,76.9,74.4,30.13,North,352,0.0,0.0,92,0.00,,CLR,0.00,VWS V14.01,2013-07-06 01:15:00,
2013-07-05 21:20:00,76.8,74.4,30.13,North,352,0.0,0.0,92,0.00,,CLR,0.00,VWS V14.01,2013-07-06 01:20:00,
2013-07-05 21:25:00,76.6,74.3,30.14,North,352,0.0,0.0,92,0.00,,CLR,0.00,VWS V14.01,2013-07-06 01:25:00,
2013-07-05 21:30:00,76.4,74.2,30.15,North,352,0.0,0.0,93,0.00,,CLR,0.00,VWS V14.01,2013-07-06 01:30:00,
2013-07-05 21:36:00,76.3,74.1,30.15,North,352,0.0,0.0,93,0.00,,CLR,0.00,VWS V14.01,2013-07-06 01:36:00,
2013-07-05 21:41:00,76.2,74.1,30.15,North,352,0.0,0.0,93,0.00,,CLR,0.00,VWS V14.01,2013-07-06 01:41:00,
2013-07-05 21:46:00,76.2,74.1,30.15,North,352,0.0,0.0,93,0.00,,CLR,0.00,VWS V14.01,2013-07-06 01:46:00,
2013-07-05 21:51:00,75.9,73.9,30.15,North,352,0.0,0.0,94,0.00,,CLR,0.00,VWS V14.01,2013-07-06 01:51:00,
2013-07-05 21:56:00,75.8,73.9,30.15,North,352,0.0,0.0,94,0.00,,CLR,0.00,VWS V14.01,2013-07-06 01:56:00,
2013-07-05 22:01:00,75.6,73.8,30.15,North,352,0.0,0.0,94,0.00,,CLR,0.00,VWS V14.01,2013-07-06 02:01:00,
2013-07-05 22:06:00,75.4,73.6,30.16,North,352,0.0,0.0,94,0.00,,CLR,0.00,VWS V14.01,2013-07-06 02:06:00,
2013-07-05 22:11:00,75.3,73.6,30.16,North,352,0.0,0.0,94,0.00,,CLR,0.00,VWS V14.01,2013-07-06 02:11:00,
2013-07-05 22:12:00,75.3,73.6,30.16,North,352,0.0,0.0,94,0.00,,CLR,0.00,VWS V14.01,2013-07-06 02:12:00,
2013-07-05 22:17:00,75.2,73.5,30.16,North,352,0.0,0.0,94,0.00,,CLR,0.00,VWS V14.01,2013-07-06 02:17:00,
2013-07-05 22:22:00,75.1,73.5,30.16,North,352,0.0,0.0,95,0.00,,CLR,0.00,VWS V14.01,2013-07-06 02:22:00,
2013-07-05 22:27:00,75.0,73.5,30.15,North,352,0.0,0.0,95,0.00,,CLR,0.00,VWS V14.01,2013-07-06 02:27:00,
2013-07-05 22:32:00,74.8,73.4,30.16,North,352,0.0,0.0,96,0.00,,CLR,0.00,VWS V14.01,2013-07-06 02:32:00,
2013-07-05 22:37:00,74.7,73.4,30.16,North,352,0.0,0.0,96,0.00,,CLR,0.00,VWS V14.01,2013-07-06 02:37:00,
2013-07-05 22:42:00,74.6,73.4,30.16,North,352,0.0,0.0,96,0.00,,CLR,0.00,VWS V14.01,2013-07-06 02:42:00,
2013-07-05 22:47:00,74.6,73.4,30.16,North,352,0.0,0.0,96,0.00,,CLR,0.00,VWS V14.01,2013-07-06 02:47:00,
2013-07-05 22:52:00,74.4,73.3,30.16,North,352,0.0,0.0,96,0.00,,CLR,0.00,VWS V14.01,2013-07-06 02:52:00,
2013-07-05 22:57:00,74.3,73.2,30.16,North,352,0.0,0.0,96,0.00,,CLR,0.00,VWS V14.01,2013-07-06 02:57:00,
2013-07-05 23:02:00,74.3,73.3,30.16,North,352,0.0,0.0,97,0.00,,CLR,0.00,VWS V14.01,2013-07-06 03:02:00,
2013-07-05 23:08:00,74.1,73.1,30.16,North,352,0.0,0.0,97,0.00,,CLR,0.00,VWS V14.01,2013-07-06 03:08:00,
2013-07-05 23:13:00,74.1,73.2,30.17,North,352,0.0,0.0,97,0.00,,CLR,0.00,VWS V14.01,2013-07-06 03:13:00,
2013-07-05 23:18:00,74.0,73.1,30.17,North,352,0.0,0.0,97,0.00,,CLR,0.00,VWS V14.01,2013-07-06 03:18:00,
2013-07-05 23:23:00,73.9,73.0,30.17,North,352,0.0,0.0,97,0.00,,CLR,0.00,VWS V14.01,2013-07-06 03:23:00,
2013-07-05 23:28:00,73.8,73.0,30.17,North,352,0.0,0.0,97,0.00,,CLR,0.00,VWS V14.01,2013-07-06 03:28:00,
2013-07-05 23:33:00,73.6,72.8,30.17,North,352,0.0,0.0,97,0.00,,CLR,0.00,VWS V14.01,2013-07-06 03:33:00,
2013-07-05 23:38:00,73.6,72.8,30.17,North,352,0.0,0.0,98,0.00,,CLR,0.00,VWS V14.01,2013-07-06 03:38:00,
2013-07-05 23:43:00,73.5,72.8,30.17,North,352,0.0,0.0,98,0.00,,CLR,0.00,VWS V14.01,2013-07-06 03:43:00,
2013-07-05 23:49:00,73.4,72.7,30.17,North,352,0.0,0.0,98,0.00,,CLR,0.00,VWS V14.01,2013-07-06 03:49:00,
2013-07-05 23:54:00,73.3,72.7,30.17,North,352,0.0,0.0,98,0.00,,CLR,0.00,VWS V14.01,2013-07-06 03:54:00,
2013-07-05 23:59:00,73.2,72.6,30.16,North,352,0.0,0.0,98,0.00,,CLR,0.00,VWS V14.01,2013-07-06 03:59:00,